Time;durP1;ratioP1;P1;durP2;ratioP2;P2;SDS_P1;SDS_P2;PMS_P1;PMS_P2;Temp;Humidity;BMP_temperature;BMP_pressure;BME280_temperature;BME280_humidity;BME280_pressure;Samples;Min_cycle;Max_cycle;Signal;HPM_P1;HPM_P2
2021/06/28 00:01:58;;;;;;;11.32;9.63;;;18.40;90.40;;;;;;4910008;28;20062;-86
2021/06/28 00:04:24;;;;;;;13.00;9.13;;;18.40;90.80;;;;;;4986256;28;20060;-86
2021/06/28 00:06:49;;;;;;;9.57;8.30;;;18.50;90.70;;;;;;4913606;28;20034;-86
2021/06/28 00:09:15;;;;;;;10.65;9.18;;;18.50;91.00;;;;;;4951525;28;20388;-85
2021/06/28 00:11:40;;;;;;;13.93;11.07;;;18.50;90.80;;;;;;4926650;28;20569;-86
2021/06/28 00:14:06;;;;;;;12.95;10.95;;;18.40;90.30;;;;;;4918651;28;20040;-86
2021/06/28 00:16:31;;;;;;;16.40;10.95;;;18.30;90.60;;;;;;4938367;28;20028;-86
2021/06/28 00:19:00;;;;;;;12.65;10.88;;;18.30;90.60;;;;;;4989958;28;20063;-86
2021/06/28 00:21:25;;;;;;;8.80;7.93;;;18.30;90.80;;;;;;4975803;28;20032;-85
2021/06/28 00:23:51;;;;;;;12.00;10.77;;;18.20;90.70;;;;;;4981773;28;20503;-85
2021/06/28 00:26:17;;;;;;;12.02;10.52;;;18.20;90.80;;;;;;4917157;28;20055;-86
2021/06/28 00:28:42;;;;;;;15.88;11.32;;;18.20;90.80;;;;;;4924532;28;20444;-86
2021/06/28 00:31:08;;;;;;;12.10;10.60;;;18.10;91.00;;;;;;4932782;28;20043;-85
2021/06/28 00:33:34;;;;;;;14.95;11.10;;;18.00;91.00;;;;;;4915847;28;20039;-86
2021/06/28 00:35:59;;;;;;;13.20;11.20;;;18.00;91.30;;;;;;5009655;28;20032;-85
2021/06/28 00:38:27;;;;;;;13.15;10.07;;;18.10;92.70;;;;;;4921008;28;20507;-84
2021/06/28 00:40:53;;;;;;;14.55;11.50;;;18.20;92.20;;;;;;4916765;28;20440;-85
2021/06/28 00:43:19;;;;;;;14.63;12.15;;;18.00;91.20;;;;;;4980011;28;20035;-86
2021/06/28 00:45:44;;;;;;;13.20;11.82;;;18.00;92.80;;;;;;4896377;28;20043;-86
2021/06/28 00:48:12;;;;;;;14.82;12.68;;;17.90;93.70;;;;;;4923722;28;20042;-86
2021/06/28 00:50:41;;;;;;;15.63;11.88;;;17.80;92.60;;;;;;4926529;28;20036;-85
2021/06/28 00:53:10;;;;;;;16.23;12.30;;;17.80;91.30;;;;;;4895819;28;20063;-85
2021/06/28 00:55:37;;;;;;;16.00;12.10;;;17.70;91.80;;;;;;4936041;28;20095;-86
2021/06/28 00:58:03;;;;;;;13.25;11.85;;;17.70;92.50;;;;;;4946135;28;20032;-86
2021/06/28 01:00:29;;;;;;;14.48;12.77;;;17.60;92.00;;;;;;4983533;28;20506;-86
2021/06/28 01:02:56;;;;;;;20.92;12.65;;;17.60;92.90;;;;;;4910371;28;20032;-86
2021/06/28 01:05:23;;;;;;;12.38;10.18;;;17.60;92.50;;;;;;4923827;28;20047;-87
2021/06/28 01:07:49;;;;;;;15.20;12.15;;;17.60;92.10;;;;;;4931987;28;20033;-87
2021/06/28 01:10:16;;;;;;;17.75;12.05;;;17.60;91.50;;;;;;4923607;28;20050;-86
2021/06/28 01:12:45;;;;;;;17.40;12.88;;;17.50;90.90;;;;;;4973026;28;20133;-86
2021/06/28 01:15:11;;;;;;;21.38;13.52;;;17.50;91.20;;;;;;4925529;28;20036;-85
2021/06/28 01:17:37;;;;;;;17.90;12.75;;;17.40;91.30;;;;;;4918569;28;20098;-86
2021/06/28 01:20:10;;;;;;;18.85;13.68;;;17.40;91.00;;;;;;4911762;28;20055;-87
2021/06/28 01:22:38;;;;;;;16.30;14.00;;;17.40;91.80;;;;;;4922927;28;20109;-86
2021/06/28 01:25:07;;;;;;;13.43;11.13;;;17.40;93.10;;;;;;4982592;28;20317;-86
2021/06/28 01:27:33;;;;;;;17.63;13.93;;;17.40;91.60;;;;;;4977694;28;20043;-87
2021/06/28 01:29:58;;;;;;;16.40;14.00;;;17.30;93.50;;;;;;4911014;28;20049;-86
2021/06/28 01:32:25;;;;;;;19.95;13.48;;;17.20;94.00;;;;;;4993858;28;20130;-86
2021/06/28 01:34:50;;;;;;;15.88;13.82;;;17.30;91.20;;;;;;4922692;28;20043;-87
2021/06/28 01:37:18;;;;;;;23.77;15.82;;;17.30;91.80;;;;;;4933746;28;20032;-86
2021/06/28 01:39:44;;;;;;;20.70;15.63;;;17.20;92.40;;;;;;4954454;28;20027;-86
2021/06/28 01:42:10;;;;;;;18.65;15.82;;;17.10;92.90;;;;;;4950115;28;20032;-86
2021/06/28 01:44:35;;;;;;;21.48;15.32;;;17.00;95.60;;;;;;4923136;28;20251;-87
2021/06/28 01:47:01;;;;;;;18.30;14.68;;;17.00;93.20;;;;;;4978734;28;20090;-86
2021/06/28 01:49:26;;;;;;;18.98;15.32;;;17.00;92.50;;;;;;4923853;28;20237;-86
2021/06/28 01:51:52;;;;;;;19.27;15.90;;;16.90;92.80;;;;;;4925023;28;20240;-86
2021/06/28 01:54:18;;;;;;;19.25;15.88;;;16.90;94.70;;;;;;4914677;28;20088;-86
2021/06/28 01:56:44;;;;;;;17.02;15.18;;;16.90;94.50;;;;;;4952605;28;20041;-85
2021/06/28 01:59:09;;;;;;;18.35;15.07;;;17.10;93.00;;;;;;4929131;28;20050;-86
2021/06/28 02:01:35;;;;;;;18.75;15.70;;;17.10;92.80;;;;;;4934240;28;20464;-86
2021/06/28 02:04:00;;;;;;;21.35;15.75;;;17.10;96.30;;;;;;4950778;28;20097;-86
2021/06/28 02:06:26;;;;;;;18.23;16.15;;;16.90;93.00;;;;;;4925614;28;20032;-85
2021/06/28 02:08:52;;;;;;;19.90;15.98;;;16.90;94.00;;;;;;4909646;28;20456;-83
2021/06/28 02:11:17;;;;;;;20.40;16.58;;;16.80;95.70;;;;;;4925881;28;20562;-84
2021/06/28 02:13:43;;;;;;;18.85;15.75;;;16.80;96.10;;;;;;4897832;28;20126;-83
2021/06/28 02:16:08;;;;;;;20.90;16.30;;;16.90;97.50;;;;;;4949246;28;20089;-84
2021/06/28 02:18:34;;;;;;;19.45;16.05;;;16.70;96.20;;;;;;4896864;28;20036;-83
2021/06/28 02:21:00;;;;;;;18.85;16.33;;;16.80;95.30;;;;;;4890015;28;20483;-83
2021/06/28 02:23:33;;;;;;;20.17;17.13;;;16.70;95.90;;;;;;4910418;28;20028;-83
2021/06/28 02:26:02;;;;;;;21.25;18.10;;;16.80;98.60;;;;;;4974058;28;20460;-83
2021/06/28 02:28:29;;;;;;;20.42;16.00;;;16.80;96.30;;;;;;4970019;28;20048;-83
2021/06/28 02:30:55;;;;;;;21.27;16.67;;;16.80;94.70;;;;;;4921891;28;20036;-83
2021/06/28 02:33:21;;;;;;;19.25;15.98;;;16.60;96.20;;;;;;4923358;28;20047;-83
2021/06/28 02:35:46;;;;;;;21.40;17.17;;;16.80;99.00;;;;;;4910334;28;20439;-85
2021/06/28 02:38:12;;;;;;;17.60;15.68;;;16.70;97.80;;;;;;4895674;28;20071;-83
2021/06/28 02:40:38;;;;;;;20.85;18.17;;;16.60;96.80;;;;;;4890993;28;20042;-83
2021/06/28 02:43:03;;;;;;;27.23;18.92;;;16.70;96.30;;;;;;4909534;28;20385;-83
2021/06/28 02:45:29;;;;;;;21.27;17.02;;;16.70;94.50;;;;;;4936902;28;20110;-83
2021/06/28 02:47:55;;;;;;;22.90;18.10;;;16.80;95.20;;;;;;4975736;28;20044;-84
2021/06/28 02:50:20;;;;;;;19.25;16.58;;;16.60;96.30;;;;;;4892428;28;20131;-83
2021/06/28 02:52:46;;;;;;;20.25;17.10;;;16.60;95.20;;;;;;4945958;28;20508;-83
2021/06/28 02:55:12;;;;;;;24.15;18.23;;;16.50;94.90;;;;;;4914296;28;20036;-83
2021/06/28 02:57:38;;;;;;;21.83;16.95;;;16.50;95.90;;;;;;4931521;28;20393;-83
2021/06/28 03:00:15;;;;;;;19.65;17.33;;;16.50;97.70;;;;;;4932198;28;20115;-83
2021/06/28 03:02:40;;;;;;;18.55;16.58;;;16.50;96.20;;;;;;4984885;28;20047;-83
2021/06/28 03:05:06;;;;;;;21.88;16.67;;;16.40;96.00;;;;;;4943512;28;20055;-84
2021/06/28 03:07:32;;;;;;;23.90;18.33;;;16.50;98.10;;;;;;4985662;28;20082;-83
2021/06/28 03:09:58;;;;;;;22.90;17.30;;;16.40;95.30;;;;;;4917668;28;20026;-83
2021/06/28 03:12:23;;;;;;;20.70;16.67;;;16.40;95.80;;;;;;4912140;28;20028;-83
2021/06/28 03:14:49;;;;;;;26.00;18.38;;;16.50;97.90;;;;;;4941017;28;20190;-84
2021/06/28 03:17:14;;;;;;;23.70;18.05;;;16.50;97.90;;;;;;4923086;28;20637;-83
2021/06/28 03:19:40;;;;;;;20.75;17.80;;;16.50;98.10;;;;;;4907521;28;20197;-83
2021/06/28 03:22:06;;;;;;;26.13;18.77;;;16.50;96.90;;;;;;4921480;28;20039;-83
2021/06/28 03:24:31;;;;;;;23.25;19.20;;;16.50;97.10;;;;;;4966794;28;20039;-83
2021/06/28 03:26:57;;;;;;;24.92;18.60;;;16.50;98.60;;;;;;4983875;28;20036;-83
2021/06/28 03:29:22;;;;;;;25.77;18.60;;;16.40;97.60;;;;;;4986891;28;20431;-83
2021/06/28 03:31:48;;;;;;;25.60;19.38;;;16.50;95.80;;;;;;4903811;28;20039;-83
2021/06/28 03:34:13;;;;;;;24.58;18.52;;;16.50;98.20;;;;;;4926863;28;20114;-84
2021/06/28 03:36:41;;;;;;;22.98;19.77;;;16.40;97.90;;;;;;4896507;28;20032;-83
2021/06/28 03:39:07;;;;;;;24.88;18.50;;;16.40;96.40;;;;;;4891995;28;20034;-83
2021/06/28 03:41:33;;;;;;;25.27;19.92;;;16.40;96.40;;;;;;4989960;28;20031;-82
2021/06/28 03:43:58;;;;;;;25.30;19.13;;;16.40;96.00;;;;;;4975894;28;20547;-83
2021/06/28 03:46:24;;;;;;;24.15;19.77;;;16.40;95.30;;;;;;4995646;28;20555;-83
2021/06/28 03:48:49;;;;;;;26.63;19.45;;;16.40;97.60;;;;;;4972301;28;20558;-83
2021/06/28 03:51:15;;;;;;;25.88;20.30;;;16.30;95.70;;;;;;4918708;28;20641;-83
2021/06/28 03:53:40;;;;;;;30.60;21.85;;;16.40;98.80;;;;;;4918957;28;20028;-84
2021/06/28 03:56:06;;;;;;;27.20;21.00;;;16.40;98.50;;;;;;4925641;28;20033;-83
2021/06/28 03:58:38;;;;;;;29.35;20.33;;;16.40;98.40;;;;;;4919077;28;20035;-83
2021/06/28 04:01:04;;;;;;;32.00;21.98;;;16.40;98.90;;;;;;4921768;28;20349;-84
2021/06/28 04:03:32;;;;;;;27.88;20.50;;;16.50;98.90;;;;;;4973530;28;20032;-83
2021/06/28 04:06:01;;;;;;;34.28;22.13;;;16.40;96.50;;;;;;4889536;28;20058;-83
2021/06/28 04:08:27;;;;;;;31.08;21.88;;;16.60;99.80;;;;;;4967813;28;20035;-83
2021/06/28 04:10:52;;;;;;;35.10;22.92;;;16.60;96.00;;;;;;4891056;28;20083;-83
2021/06/28 04:13:19;;;;;;;37.58;23.88;;;16.70;95.70;;;;;;4975760;28;20031;-84
2021/06/28 04:15:44;;;;;;;251.98;50.88;;;16.80;95.10;;;;;;4926127;28;20115;-83
2021/06/28 04:18:10;;;;;;;40.85;25.92;;;17.00;95.00;;;;;;4930819;28;20127;-84
2021/06/28 04:20:36;;;;;;;54.30;28.30;;;17.10;94.20;;;;;;4927871;28;20047;-83
2021/06/28 04:23:01;;;;;;;45.75;28.02;;;17.10;94.30;;;;;;4914951;28;20519;-84
2021/06/28 04:25:27;;;;;;;44.08;27.75;;;17.20;95.10;;;;;;4907514;28;20109;-83
2021/06/28 04:27:52;;;;;;;36.47;25.85;;;17.30;94.90;;;;;;4995926;28;21601;-83
2021/06/28 04:30:18;;;;;;;36.80;24.45;;;17.40;94.70;;;;;;4917270;28;20070;-83
2021/06/28 04:32:44;;;;;;;42.25;27.33;;;17.50;94.70;;;;;;4922921;28;20032;-83
2021/06/28 04:35:12;;;;;;;38.75;26.92;;;17.60;94.40;;;;;;4920320;28;20445;-83
2021/06/28 04:37:38;;;;;;;41.03;27.20;;;17.80;94.20;;;;;;4916637;28;20040;-82
2021/06/28 04:40:05;;;;;;;40.22;28.13;;;17.90;94.10;;;;;;4977480;28;20494;-82
2021/06/28 04:42:31;;;;;;;37.95;25.75;;;18.00;94.20;;;;;;4920220;28;20059;-83
2021/06/28 04:44:56;;;;;;;25.40;20.25;;;18.20;93.70;;;;;;4903715;28;20056;-84
2021/06/28 04:47:22;;;;;;;36.47;24.40;;;18.30;92.90;;;;;;4971433;28;20032;-84
2021/06/28 04:49:47;;;;;;;33.30;27.17;;;18.50;93.50;;;;;;4918230;28;20040;-84
2021/06/28 04:52:13;;;;;;;14.52;13.02;;;18.80;93.70;;;;;;4921237;28;20036;-84
2021/06/28 04:54:39;;;;;;;19.02;15.60;;;18.80;92.50;;;;;;4922796;28;20024;-81
2021/06/28 04:57:04;;;;;;;13.20;11.80;;;19.00;92.90;;;;;;4909272;28;20043;-82
2021/06/28 04:59:30;;;;;;;17.45;15.40;;;19.10;92.30;;;;;;5006177;28;20039;-81
2021/06/28 05:01:55;;;;;;;22.35;20.00;;;19.20;93.80;;;;;;4941052;28;20310;-82
2021/06/28 05:04:21;;;;;;;10.90;9.85;;;19.50;93.80;;;;;;4955614;28;20078;-83
2021/06/28 05:06:48;;;;;;;25.45;20.85;;;19.60;91.60;;;;;;4930281;28;20042;-82
2021/06/28 05:09:14;;;;;;;19.63;16.95;;;19.90;94.70;;;;;;4962447;28;20138;-83
2021/06/28 05:11:39;;;;;;;18.88;16.98;;;20.30;93.70;;;;;;4922654;28;20067;-82
2021/06/28 05:14:05;;;;;;;25.75;22.00;;;20.40;94.10;;;;;;4942412;28;20087;-82
2021/06/28 05:16:31;;;;;;;21.40;19.20;;;20.70;95.00;;;;;;4976008;28;20109;-82
2021/06/28 05:18:56;;;;;;;19.08;16.88;;;20.90;95.10;;;;;;4929193;28;20031;-82
2021/06/28 05:21:23;;;;;;;19.13;15.20;;;21.20;95.60;;;;;;4915756;28;20485;-83
2021/06/28 05:23:48;;;;;;;17.45;15.23;;;21.50;95.80;;;;;;4984437;28;20070;-83
2021/06/28 05:26:14;;;;;;;15.02;13.43;;;21.80;95.90;;;;;;4936367;28;20550;-83
2021/06/28 05:28:39;;;;;;;17.70;15.85;;;22.00;96.00;;;;;;4932402;28;20070;-83
2021/06/28 05:31:05;;;;;;;17.15;14.70;;;22.30;96.10;;;;;;4903765;28;20162;-79
2021/06/28 05:33:30;;;;;;;17.92;14.55;;;22.60;95.90;;;;;;4989764;28;20047;-82
2021/06/28 05:35:56;;;;;;;16.85;14.18;;;22.80;96.30;;;;;;4978446;28;20032;-86
2021/06/28 05:38:21;;;;;;;16.65;13.57;;;23.10;96.10;;;;;;4973246;28;20028;-84
2021/06/28 05:40:48;;;;;;;14.73;12.70;;;23.40;97.00;;;;;;4938365;28;20040;-84
2021/06/28 05:43:13;;;;;;;13.18;10.98;;;23.60;96.50;;;;;;4938259;28;20044;-85
2021/06/28 05:45:39;;;;;;;15.18;11.68;;;23.80;95.90;;;;;;4921912;28;20051;-84
2021/06/28 05:48:05;;;;;;;15.40;11.38;;;24.10;96.50;;;;;;4926072;28;20098;-84
2021/06/28 05:50:31;;;;;;;12.68;11.48;;;24.20;96.20;;;;;;4928447;28;20114;-85
2021/06/28 05:52:57;;;;;;;13.73;11.85;;;24.40;96.20;;;;;;4924390;28;20098;-84
2021/06/28 05:55:23;;;;;;;12.93;11.73;;;24.50;96.60;;;;;;4979433;28;20028;-84
2021/06/28 05:57:50;;;;;;;14.88;11.57;;;24.70;96.70;;;;;;4922119;28;20028;-84
2021/06/28 06:00:18;;;;;;;12.45;11.23;;;25.00;96.60;;;;;;4927636;28;20362;-84
2021/06/28 06:02:44;;;;;;;15.77;12.55;;;25.00;96.00;;;;;;4956722;28;20513;-84
2021/06/28 06:05:10;;;;;;;11.85;10.60;;;25.30;96.20;;;;;;4905131;28;20028;-84
2021/06/28 06:07:42;;;;;;;17.50;10.60;;;25.40;96.00;;;;;;4942247;28;20040;-84
2021/06/28 06:10:13;;;;;;;11.52;8.80;;;25.60;95.60;;;;;;4931640;28;20404;-85
2021/06/28 06:12:39;;;;;;;10.88;9.85;;;25.90;95.60;;;;;;4986734;28;20403;-85
2021/06/28 06:15:06;;;;;;;15.10;10.30;;;26.10;95.70;;;;;;4925529;28;20050;-84
2021/06/28 06:17:32;;;;;;;11.38;9.90;;;26.40;95.50;;;;;;4928086;28;20043;-82
2021/06/28 06:19:59;;;;;;;13.27;10.23;;;26.50;95.30;;;;;;4941200;28;20531;-83
2021/06/28 06:22:24;;;;;;;10.48;9.48;;;26.60;94.50;;;;;;4952011;28;20028;-85
2021/06/28 06:24:50;;;;;;;13.20;9.88;;;26.70;94.50;;;;;;4905277;28;20511;-85
2021/06/28 06:27:15;;;;;;;10.55;9.25;;;26.70;94.10;;;;;;4931705;28;20554;-86
2021/06/28 06:29:41;;;;;;;10.15;9.25;;;26.80;93.80;;;;;;4928471;28;20032;-82
2021/06/28 06:32:07;;;;;;;11.07;9.20;;;26.80;93.60;;;;;;4901452;28;20031;-83
2021/06/28 06:34:32;;;;;;;12.57;9.18;;;27.10;93.70;;;;;;4986352;28;20024;-82
2021/06/28 06:36:58;;;;;;;9.65;8.65;;;27.30;93.10;;;;;;4978603;28;20383;-83
2021/06/28 06:39:23;;;;;;;10.05;8.73;;;27.60;93.10;;;;;;4967801;28;20122;-86
2021/06/28 06:41:49;;;;;;;8.95;8.18;;;27.80;92.80;;;;;;4913437;28;20104;-84
2021/06/28 06:44:15;;;;;;;10.45;8.82;;;28.10;92.80;;;;;;4984357;28;20058;-84
2021/06/28 06:46:40;;;;;;;11.93;9.00;;;28.20;92.00;;;;;;4926913;28;20051;-85
2021/06/28 06:49:06;;;;;;;10.73;9.20;;;28.30;91.60;;;;;;4976991;28;20085;-82
2021/06/28 06:51:32;;;;;;;16.25;9.43;;;28.40;91.30;;;;;;4928164;28;20110;-84
2021/06/28 06:54:03;;;;;;;9.43;8.50;;;28.40;91.10;;;;;;4889696;28;20043;-84
2021/06/28 06:56:29;;;;;;;12.60;9.30;;;28.40;91.00;;;;;;4913060;28;20439;-84
2021/06/28 06:58:55;;;;;;;9.02;8.23;;;28.50;90.60;;;;;;4932992;28;20158;-84
2021/06/28 07:01:20;;;;;;;9.98;9.07;;;28.40;90.00;;;;;;4919823;28;20041;-82
2021/06/28 07:03:46;;;;;;;9.35;8.35;;;28.50;90.20;;;;;;4940079;28;20129;-86
2021/06/28 07:06:12;;;;;;;9.05;8.05;;;28.50;90.10;;;;;;4917718;28;20078;-86
2021/06/28 07:08:37;;;;;;;14.30;8.88;;;28.50;90.00;;;;;;4912348;28;20059;-86
2021/06/28 07:11:06;;;;;;;8.40;7.60;;;28.50;90.00;;;;;;4902894;28;20051;-86
2021/06/28 07:13:32;;;;;;;9.57;7.60;;;28.80;90.60;;;;;;4984704;28;20495;-86
2021/06/28 07:15:57;;;;;;;9.57;8.25;;;28.90;89.90;;;;;;4921117;28;20036;-86
2021/06/28 07:18:23;;;;;;;10.43;8.95;;;29.10;89.40;;;;;;4946176;28;20055;-86
2021/06/28 07:20:56;;;;;;;9.15;8.25;;;29.30;89.10;;;;;;4916985;28;20050;-88
2021/06/28 07:23:28;;;;;;;10.85;8.13;;;29.30;89.30;;;;;;4888661;28;20044;-86
2021/06/28 07:25:59;;;;;;;9.45;8.52;;;29.40;88.90;;;;;;4916070;28;20696;-86
2021/06/28 07:28:41;;;;;;;9.75;8.65;;;29.40;88.80;;;;;;4887280;28;20043;-86
2021/06/28 07:31:07;;;;;;;9.55;8.30;;;29.50;88.40;;;;;;4887502;28;20442;-86
2021/06/28 07:33:38;;;;;;;8.75;7.95;;;29.60;89.70;;;;;;4933689;28;20081;-85
2021/06/28 07:36:05;;;;;;;11.05;8.57;;;29.80;88.00;;;;;;4901047;28;20043;-86
2021/06/28 07:38:33;;;;;;;8.18;6.25;;;29.90;88.10;;;;;;4917799;28;20028;-85
2021/06/28 07:41:15;;;;;;;10.82;8.63;;;30.00;89.00;;;;;;4966064;28;20036;-86
2021/06/28 07:43:48;;;;;;;9.63;7.30;;;30.00;87.40;;;;;;4968379;28;20044;-85
2021/06/28 07:46:17;;;;;;;10.02;8.88;;;30.30;89.40;;;;;;4963159;28;20063;-85
2021/06/28 07:48:47;;;;;;;13.63;8.05;;;30.30;86.80;;;;;;4895340;28;20476;-86
2021/06/28 07:51:23;;;;;;;10.27;7.63;;;30.40;85.80;;;;;;4890490;28;20453;-86
2021/06/28 07:53:49;;;;;;;;;;;30.50;86.00;;;;;;4972111;28;20046;-85
2021/06/28 07:56:14;;;;;;;10.73;7.75;;;30.60;85.90;;;;;;4924062;28;19915;-85
2021/06/28 07:58:43;;;;;;;11.65;8.20;;;30.50;84.70;;;;;;4918959;28;20085;-84
2021/06/28 08:01:10;;;;;;;8.45;7.65;;;30.60;85.20;;;;;;4900585;28;20119;-84
2021/06/28 08:03:44;;;;;;;8.68;7.85;;;30.70;84.10;;;;;;4932222;28;20505;-84
2021/06/28 08:06:13;;;;;;;13.18;8.13;;;30.70;83.60;;;;;;4903840;28;20049;-84
2021/06/28 08:08:39;;;;;;;9.43;7.72;;;30.80;85.30;;;;;;4917367;28;20040;-83
2021/06/28 08:11:07;;;;;;;10.40;7.28;;;31.10;84.80;;;;;;4884741;28;20036;-83
2021/06/28 08:13:32;;;;;;;10.40;8.18;;;31.10;83.60;;;;;;4913852;28;20104;-84
2021/06/28 08:15:58;;;;;;;7.28;6.63;;;31.20;83.30;;;;;;4927006;28;20489;-81
2021/06/28 08:18:23;;;;;;;8.55;7.03;;;31.20;81.50;;;;;;4974496;28;20134;-81
2021/06/28 08:20:49;;;;;;;8.75;7.93;;;31.10;81.10;;;;;;4909671;28;20103;-81
2021/06/28 08:23:15;;;;;;;9.60;8.30;;;31.10;80.80;;;;;;4923597;28;20503;-82
2021/06/28 08:25:40;;;;;;;8.45;7.65;;;31.30;81.00;;;;;;4894914;28;20457;-80
2021/06/28 08:28:07;;;;;;;8.43;7.38;;;31.50;79.80;;;;;;4951588;28;20034;-81
2021/06/28 08:30:33;;;;;;;7.55;6.95;;;31.50;80.20;;;;;;4919579;28;20040;-80
2021/06/28 08:32:59;;;;;;;8.85;8.02;;;31.70;80.00;;;;;;4913577;28;20036;-80
2021/06/28 08:35:24;;;;;;;8.80;7.90;;;32.10;79.10;;;;;;4985921;28;20034;-81
2021/06/28 08:37:50;;;;;;;8.43;7.45;;;32.10;78.40;;;;;;4909682;28;20030;-80
2021/06/28 08:40:15;;;;;;;8.27;7.45;;;32.20;78.90;;;;;;4926570;28;20126;-79
2021/06/28 08:42:41;;;;;;;8.70;6.45;;;32.30;77.50;;;;;;4902168;28;20127;-81
2021/06/28 08:45:07;;;;;;;8.18;6.80;;;32.60;80.20;;;;;;4907171;28;20025;-78
2021/06/28 08:47:33;;;;;;;10.50;8.02;;;32.70;77.50;;;;;;4983793;28;20045;-79
2021/06/28 08:49:59;;;;;;;8.02;7.22;;;32.90;76.30;;;;;;4975026;28;20039;-79
2021/06/28 08:52:24;;;;;;;9.23;7.57;;;33.30;78.50;;;;;;4987369;28;20038;-79
2021/06/28 08:54:50;;;;;;;10.48;8.60;;;33.40;75.10;;;;;;4933535;28;20123;-78
2021/06/28 08:57:17;;;;;;;10.02;8.23;;;33.70;76.60;;;;;;4906930;28;20035;-78
2021/06/28 08:59:42;;;;;;;14.00;8.30;;;33.90;75.60;;;;;;4939728;28;20032;-78
2021/06/28 09:02:08;;;;;;;9.27;7.28;;;34.10;74.80;;;;;;4957826;28;20495;-78
2021/06/28 09:04:34;;;;;;;9.50;6.97;;;34.00;74.60;;;;;;4942110;28;20111;-79
2021/06/28 09:07:19;;;;;;;7.10;6.50;;;33.90;72.90;;;;;;4920116;28;20057;-78
2021/06/28 09:09:44;;;;;;;8.88;8.05;;;33.90;73.20;;;;;;4936517;28;20040;-77
2021/06/28 09:12:15;;;;;;;6.63;6.05;;;34.10;72.20;;;;;;4909451;28;20292;-78
2021/06/28 09:15:07;;;;;;;7.97;7.13;;;34.20;70.90;;;;;;4940677;28;20436;-79
2021/06/28 09:17:37;;;;;;;7.80;7.00;;;34.20;71.00;;;;;;4925793;28;20044;-78
2021/06/28 09:20:22;;;;;;;6.40;5.80;;;34.30;70.90;;;;;;4947933;28;20028;-78
2021/06/28 09:22:48;;;;;;;6.95;6.43;;;34.20;69.80;;;;;;4958983;28;20036;-77
2021/06/28 09:25:32;;;;;;;7.28;5.47;;;34.10;69.20;;;;;;4936921;28;20597;-77
2021/06/28 09:27:58;;;;;;;6.60;6.00;;;33.90;69.40;;;;;;4953526;28;20040;-77
2021/06/28 09:30:23;;;;;;;6.30;5.80;;;33.90;69.40;;;;;;4962375;28;20542;-78
2021/06/28 09:32:52;;;;;;;7.93;6.30;;;33.90;70.90;;;;;;4958715;28;20036;-79
2021/06/28 09:35:38;;;;;;;8.27;7.28;;;33.90;69.80;;;;;;4940412;28;20290;-78
2021/06/28 09:38:25;;;;;;;9.38;7.40;;;34.20;68.50;;;;;;4932914;28;20154;-77
2021/06/28 09:40:51;;;;;;;8.27;6.43;;;34.20;67.40;;;;;;4942295;28;20024;-79
2021/06/28 09:43:24;;;;;;;7.80;7.20;;;34.40;68.00;;;;;;4938604;28;20039;-77
2021/06/28 09:45:55;;;;;;;7.20;6.50;;;34.60;67.30;;;;;;4963859;28;20495;-77
2021/06/28 09:48:25;;;;;;;9.32;7.57;;;34.80;67.00;;;;;;4940405;28;20036;-78
2021/06/28 09:50:50;;;;;;;7.70;7.00;;;35.10;67.00;;;;;;4925189;28;20119;-77
2021/06/28 09:53:25;;;;;;;9.77;8.73;;;35.40;66.30;;;;;;4920088;28;20457;-78
2021/06/28 09:55:51;;;;;;;9.38;8.45;;;35.70;65.80;;;;;;4941854;28;20032;-77
2021/06/28 09:58:27;;;;;;;7.75;7.05;;;35.80;64.00;;;;;;4937876;28;20145;-77
2021/06/28 10:00:56;;;;;;;7.70;6.30;;;35.80;62.10;;;;;;4915443;28;20499;-78
2021/06/28 10:03:33;;;;;;;9.18;7.85;;;35.80;63.10;;;;;;4968168;28;20097;-78
2021/06/28 10:06:15;;;;;;;6.90;6.20;;;35.90;64.10;;;;;;4939548;28;20043;-77
2021/06/28 10:08:45;;;;;;;7.53;6.90;;;35.90;62.40;;;;;;4937052;28;20124;-77
2021/06/28 10:11:20;;;;;;;7.25;6.65;;;36.10;62.10;;;;;;4934887;28;20083;-77
2021/06/28 10:13:51;;;;;;;10.25;7.10;;;36.00;61.30;;;;;;4920614;28;20510;-78
2021/06/28 10:16:19;;;;;;;7.15;6.60;;;36.10;62.10;;;;;;4910644;28;20044;-77
2021/06/28 10:18:46;;;;;;;6.88;6.35;;;36.10;61.40;;;;;;4946192;28;20028;-77
2021/06/28 10:21:11;;;;;;;8.40;5.90;;;36.20;59.90;;;;;;4932315;28;20500;-77
2021/06/28 10:23:37;;;;;;;7.03;6.53;;;36.20;61.90;;;;;;4959646;28;20304;-77
2021/06/28 10:26:03;;;;;;;6.63;6.07;;;36.10;62.50;;;;;;4944667;28;20099;-77
2021/06/28 10:28:29;;;;;;;6.20;5.68;;;35.90;60.10;;;;;;5003586;28;20407;-77
2021/06/28 10:30:55;;;;;;;6.72;5.82;;;35.80;60.70;;;;;;4894402;28;20044;-77
2021/06/28 10:33:22;;;;;;;6.25;5.72;;;36.00;60.90;;;;;;4911931;28;20051;-77
2021/06/28 10:35:48;;;;;;;6.40;5.90;;;36.10;59.30;;;;;;4907156;28;20036;-78
2021/06/28 10:38:14;;;;;;;6.75;6.10;;;36.10;58.70;;;;;;4913809;28;20577;-77
2021/06/28 10:40:51;;;;;;;6.80;5.88;;;36.10;58.20;;;;;;4919007;28;20135;-77
2021/06/28 10:43:35;;;;;;;6.78;6.22;;;36.10;58.00;;;;;;4924358;28;20040;-78
2021/06/28 10:46:08;;;;;;;7.93;7.05;;;36.30;58.70;;;;;;4932391;28;20047;-77
2021/06/28 10:48:47;;;;;;;7.00;6.40;;;36.70;59.60;;;;;;4921740;28;20122;-77
2021/06/28 10:51:14;;;;;;;7.53;5.80;;;37.20;57.00;;;;;;4917873;28;20504;-77
2021/06/28 10:53:42;;;;;;;6.43;5.93;;;37.20;57.10;;;;;;4934276;28;20075;-77
2021/06/28 10:56:27;;;;;;;16.15;7.60;;;37.20;57.10;;;;;;4940402;28;20031;-76
2021/06/28 10:59:05;;;;;;;9.02;7.55;;;37.40;56.30;;;;;;4247448;28;10000224;-76
2021/06/28 11:01:37;;;;;;;6.75;6.22;;;37.50;55.50;;;;;;4902652;28;25038;-76
2021/06/28 11:04:06;;;;;;;7.53;6.70;;;37.40;55.60;;;;;;4915227;28;20196;-76
2021/06/28 11:06:31;;;;;;;5.90;5.18;;;37.10;55.20;;;;;;4930329;28;20076;-76
2021/06/28 11:09:10;;;;;;;7.50;6.90;;;36.90;55.00;;;;;;4925521;28;20044;-76
2021/06/28 11:11:44;;;;;;;6.70;6.15;;;36.60;55.80;;;;;;4949984;28;20043;-76
2021/06/28 11:14:30;;;;;;;7.50;6.05;;;36.30;55.90;;;;;;4937150;28;20043;-77
2021/06/28 11:17:07;;;;;;;6.25;5.82;;;36.20;56.50;;;;;;4932315;28;20732;-76
2021/06/28 11:19:46;;;;;;;6.20;5.70;;;36.00;56.90;;;;;;4921477;28;20047;-76
2021/06/28 11:22:32;;;;;;;7.45;6.65;;;35.80;57.80;;;;;;4939460;28;20035;-75
2021/06/28 11:25:09;;;;;;;6.97;6.43;;;35.80;57.50;;;;;;4959836;28;20035;-75
2021/06/28 11:27:36;;;;;;;6.85;6.28;;;35.60;57.80;;;;;;4935134;28;20029;-76
2021/06/28 11:30:03;;;;;;;6.63;6.03;;;35.70;57.70;;;;;;4918702;28;20509;-76
2021/06/28 11:32:29;;;;;;;6.15;5.43;;;35.80;57.50;;;;;;4944373;28;20483;-76
2021/06/28 11:34:55;;;;;;;7.72;6.68;;;35.80;56.90;;;;;;4903825;28;20036;-76
2021/06/28 11:37:21;;;;;;;7.15;6.38;;;35.80;57.10;;;;;;4922329;28;20031;-76
2021/06/28 11:40:06;;;;;;;8.55;5.88;;;36.00;57.50;;;;;;4921879;28;20059;-76
2021/06/28 11:42:33;;;;;;;6.70;6.20;;;36.00;57.80;;;;;;4939873;28;20040;-76
2021/06/28 11:45:01;;;;;;;6.53;5.93;;;36.20;57.00;;;;;;4910990;28;20684;-75
2021/06/28 11:47:59;;;;;;;7.80;6.78;;;36.30;56.60;;;;;;4942932;28;20531;-75
2021/06/28 11:50:25;;;;;;;9.52;7.10;;;36.40;56.20;;;;;;4910066;28;20035;-76
2021/06/28 11:53:00;;;;;;;8.02;7.32;;;36.50;55.60;;;;;;4926263;28;20028;-75
2021/06/28 11:55:27;;;;;;;8.00;7.30;;;36.60;56.00;;;;;;4932523;28;20032;-77
2021/06/28 11:57:53;;;;;;;8.63;6.60;;;37.00;55.20;;;;;;4934181;28;20027;-76
2021/06/28 12:00:20;;;;;;;6.75;6.03;;;37.00;55.40;;;;;;4931811;28;20065;-76
2021/06/28 12:02:45;;;;;;;8.63;7.72;;;37.20;54.40;;;;;;4934888;28;20057;-76
2021/06/28 12:05:11;;;;;;;7.93;7.22;;;37.40;54.20;;;;;;4894177;28;20241;-77
2021/06/28 12:07:37;;;;;;;7.38;6.68;;;37.60;54.60;;;;;;4950056;28;20076;-75
2021/06/28 12:10:03;;;;;;;8.60;7.80;;;38.00;53.90;;;;;;4945485;28;20095;-75
2021/06/28 12:12:56;;;;;;;9.98;8.48;;;38.40;53.40;;;;;;4935612;28;20062;-76
2021/06/28 12:15:28;;;;;;;6.97;5.93;;;39.00;50.10;;;;;;4899398;28;20035;-76
2021/06/28 12:17:54;;;;;;;7.75;6.05;;;39.00;51.50;;;;;;4935334;28;20381;-76
2021/06/28 12:20:20;;;;;;;7.80;7.10;;;39.20;51.20;;;;;;4903673;28;20039;-76
2021/06/28 12:22:47;;;;;;;6.82;6.32;;;39.50;50.60;;;;;;4938335;28;20042;-75
2021/06/28 12:25:17;;;;;;;6.70;6.10;;;39.60;49.80;;;;;;4957455;28;20044;-75
2021/06/28 12:27:44;;;;;;;6.43;5.93;;;39.80;49.40;;;;;;4945323;28;20127;-75
2021/06/28 12:30:11;;;;;;;8.00;7.30;;;40.00;50.30;;;;;;4958370;28;20537;-75
2021/06/28 12:32:55;;;;;;;8.55;7.75;;;40.20;48.80;;;;;;4936893;28;20027;-75
2021/06/28 12:35:25;;;;;;;7.45;5.72;;;40.40;47.90;;;;;;4929022;28;20143;-76
2021/06/28 12:37:58;;;;;;;5.90;5.40;;;40.60;47.60;;;;;;4950685;28;20118;-76
2021/06/28 12:40:33;;;;;;;6.47;5.88;;;40.50;46.90;;;;;;4940385;28;20032;-76